Check out our new PWSWeather beta!
PWSweather.com
Personal Weather Stations
Station Observations
GIRWX1
Presovsky Kraj, GiraltovceSK

Presovsky KrajGiraltovceSK

Lat: 49.118, Lon: 21.52

Elevation: 630

Station Type: wh1080

http://www.meteogiraltovce.wz.cz/

High Low Average
Temperature 58.4°F14.7°C 48.7°F9.3°C 52.4°F11.3°C
Dew Point 50.0°F10.0°C 45.0°F7.2°C 47.2°F8.4°C
Winds 12.7 mph 20.4 kmh Calm Calm 3.0 mph SSE4.8 kmh SSE
Wind Gusts 15.9 mph25.6 kmh -- 6.0 mph9.7 kmh
Humidity 90% 69% 83%
Pressure 29.87 in1011.5 mb 29.80 in1009.1 mb -
Precipitation 0.06 in1.5 mm - -
Hour Temp Dew Point Humidity Winds Wind Gusts Pressure Precip Precip Rate Daily Precip Total
12:00 AM 48.7°F9.3°C 45.0°F7.2°C 87% 0.1 mph NW0.2 kmh NW 0.7 mph1.1 kmh 29.81 in1009.5 mb 0.00 in0.0 mm 0.00 in0.0 mm 0.00 in0.0 mm
12:05 AM 48.7°F9.3°C 45.0°F7.2°C 87% 0.7 mph 1.1 kmh 0.7 mph1.1 kmh 29.81 in1009.5 mb 0.00 in0.0 mm 0.00 in0.0 mm 0.00 in0.0 mm
12:10 AM 48.8°F9.3°C 45.1°F7.3°C 87% 0.6 mph NNW1.0 kmh NNW 1.6 mph2.6 kmh 29.81 in1009.5 mb 0.00 in0.0 mm 0.00 in0.0 mm 0.00 in0.0 mm
12:15 AM 48.9°F9.4°C 45.2°F7.3°C 87% 0.8 mph NW1.3 kmh NW 1.6 mph2.6 kmh 29.80 in1009.1 mb 0.00 in0.0 mm 0.00 in0.0 mm 0.00 in0.0 mm
12:20 AM 48.9°F9.4°C 45.2°F7.3°C 87% 0.6 mph W1.0 kmh W 1.6 mph2.6 kmh 29.81 in1009.5 mb 0.00 in0.0 mm 0.00 in0.0 mm 0.00 in0.0 mm
12:25 AM 48.9°F9.4°C 45.2°F7.3°C 87% 0.2 mph SW0.3 kmh SW 1.6 mph2.6 kmh 29.81 in1009.5 mb 0.00 in0.0 mm 0.00 in0.0 mm 0.00 in0.0 mm
12:30 AM 48.9°F9.4°C 45.2°F7.3°C 87% Calm Calm 0.7 mph1.1 kmh 29.81 in1009.5 mb 0.00 in0.0 mm 0.00 in0.0 mm 0.00 in0.0 mm
12:35 AM 48.9°F9.4°C 45.2°F7.3°C 87% Calm Calm 0.7 mph1.1 kmh 29.81 in1009.5 mb 0.00 in0.0 mm 0.00 in0.0 mm 0.00 in0.0 mm
12:40 AM 48.9°F9.4°C 45.2°F7.3°C 87% 0.9 mph NE1.4 kmh NE 2.2 mph3.5 kmh 29.81 in1009.5 mb 0.00 in0.0 mm 0.00 in0.0 mm 0.00 in0.0 mm
12:45 AM 48.9°F9.4°C 45.2°F7.3°C 87% 0.6 mph N1.0 kmh N 1.6 mph2.6 kmh 29.81 in1009.5 mb 0.00 in0.0 mm 0.00 in0.0 mm 0.00 in0.0 mm
12:50 AM 48.9°F9.4°C 45.2°F7.3°C 87% 0.8 mph N1.3 kmh N 1.6 mph2.6 kmh 29.81 in1009.5 mb 0.00 in0.0 mm 0.00 in0.0 mm 0.00 in0.0 mm
12:55 AM 48.9°F9.4°C 45.2°F7.3°C 87% 1.1 mph NNE1.8 kmh NNE 2.2 mph3.5 kmh 29.81 in1009.5 mb 0.00 in0.0 mm 0.00 in0.0 mm 0.00 in0.0 mm
01:00 AM 48.9°F9.4°C 45.2°F7.3°C 87% 1.1 mph N1.8 kmh N 2.2 mph3.5 kmh 29.81 in1009.5 mb 0.00 in0.0 mm 0.00 in0.0 mm 0.00 in0.0 mm
01:05 AM 48.9°F9.4°C 45.2°F7.3°C 87% 1.6 mph NE2.6 kmh NE 2.2 mph3.5 kmh 29.81 in1009.5 mb 0.00 in0.0 mm 0.00 in0.0 mm 0.00 in0.0 mm
01:10 AM 48.9°F9.4°C 45.2°F7.3°C 87% 2.0 mph N3.2 kmh N 3.8 mph6.1 kmh 29.81 in1009.5 mb 0.00 in0.0 mm 0.00 in0.0 mm 0.00 in0.0 mm
01:15 AM 48.9°F9.4°C 45.3°F7.4°C 87% 2.1 mph N3.4 kmh N 4.5 mph7.2 kmh 29.80 in1009.1 mb 0.00 in0.0 mm 0.00 in0.0 mm 0.00 in0.0 mm
01:20 AM 48.9°F9.4°C 45.5°F7.5°C 88% 3.0 mph N4.8 kmh N 3.8 mph6.1 kmh 29.80 in1009.1 mb 0.00 in0.0 mm 0.00 in0.0 mm 0.00 in0.0 mm
01:25 AM 49.0°F9.4°C 45.6°F7.6°C 88% 3.5 mph N5.6 kmh N 4.5 mph7.2 kmh 29.80 in1009.1 mb 0.00 in0.0 mm 0.00 in0.0 mm 0.00 in0.0 mm
01:30 AM 49.1°F9.5°C 45.7°F7.6°C 88% 1.9 mph NE3.1 kmh NE 3.8 mph6.1 kmh 29.80 in1009.1 mb 0.00 in0.0 mm 0.00 in0.0 mm 0.00 in0.0 mm
01:35 AM 49.1°F9.5°C 45.7°F7.6°C 88% 0.4 mph NNW0.6 kmh NNW 1.6 mph2.6 kmh 29.80 in1009.1 mb 0.00 in0.0 mm 0.00 in0.0 mm 0.00 in0.0 mm
01:40 AM 49.1°F9.5°C 45.7°F7.6°C 88% 1.1 mph W1.8 kmh W 2.2 mph3.5 kmh 29.80 in1009.1 mb 0.00 in0.0 mm 0.00 in0.0 mm 0.00 in0.0 mm
01:45 AM 49.1°F9.5°C 45.7°F7.6°C 88% 0.3 mph NW0.5 kmh NW 1.6 mph2.6 kmh 29.80 in1009.1 mb 0.00 in0.0 mm 0.00 in0.0 mm 0.00 in0.0 mm
01:50 AM 49.1°F9.5°C 45.7°F7.6°C 88% Calm Calm 0.7 mph1.1 kmh 29.80 in1009.1 mb 0.00 in0.0 mm 0.00 in0.0 mm 0.00 in0.0 mm
01:55 AM 49.1°F9.5°C 45.7°F7.6°C 88% 0.4 mph NE0.6 kmh NE 1.6 mph2.6 kmh 29.80 in1009.1 mb 0.00 in0.0 mm 0.00 in0.0 mm 0.00 in0.0 mm
02:00 AM 49.1°F9.5°C 45.7°F7.6°C 88% 0.2 mph S0.3 kmh S 1.6 mph2.6 kmh 29.80 in1009.1 mb 0.00 in0.0 mm 0.00 in0.0 mm 0.00 in0.0 mm
02:05 AM 49.1°F9.5°C 45.7°F7.6°C 88% Calm Calm -- 29.80 in1009.1 mb 0.00 in0.0 mm 0.00 in0.0 mm 0.00 in0.0 mm
02:10 AM 49.1°F9.5°C 45.7°F7.6°C 88% 3.5 mph S5.6 kmh S 9.2 mph14.8 kmh 29.81 in1009.5 mb 0.00 in0.0 mm 0.00 in0.0 mm 0.00 in0.0 mm
02:15 AM 49.4°F9.7°C 46.1°F7.8°C 88% 6.9 mph S11.1 kmh S 9.2 mph14.8 kmh 29.80 in1009.1 mb 0.00 in0.0 mm 0.00 in0.0 mm 0.00 in0.0 mm
02:20 AM 49.9°F9.9°C 46.8°F8.2°C 89% 6.6 mph S10.6 kmh S 9.8 mph15.8 kmh 29.80 in1009.1 mb 0.00 in0.0 mm 0.00 in0.0 mm 0.00 in0.0 mm
02:25 AM 50.1°F10.1°C 47.0°F8.3°C 89% 6.6 mph S10.6 kmh S 9.2 mph14.8 kmh 29.81 in1009.5 mb 0.00 in0.0 mm 0.00 in0.0 mm 0.00 in0.0 mm
02:30 AM 50.4°F10.2°C 47.2°F8.4°C 89% 6.6 mph S10.6 kmh S 9.8 mph15.8 kmh 29.80 in1009.1 mb 0.00 in0.0 mm 0.00 in0.0 mm 0.00 in0.0 mm
02:35 AM 50.5°F10.3°C 47.7°F8.7°C 90% 6.0 mph S9.7 kmh S 9.2 mph14.8 kmh 29.80 in1009.1 mb 0.00 in0.0 mm 0.00 in0.0 mm 0.00 in0.0 mm
02:40 AM 50.7°F10.4°C 47.8°F8.8°C 90% 7.3 mph SSE11.7 kmh SSE 10.7 mph17.2 kmh 29.81 in1009.5 mb 0.00 in0.0 mm 0.00 in0.0 mm 0.00 in0.0 mm
02:45 AM 50.8°F10.4°C 47.9°F8.8°C 90% 6.2 mph S10.0 kmh S 9.8 mph15.8 kmh 29.81 in1009.5 mb 0.00 in0.0 mm 0.00 in0.0 mm 0.00 in0.0 mm
02:50 AM 50.9°F10.5°C 48.1°F8.9°C 90% 6.8 mph S10.9 kmh S 9.2 mph14.8 kmh 29.81 in1009.5 mb 0.00 in0.0 mm 0.00 in0.0 mm 0.00 in0.0 mm
02:55 AM 50.9°F10.5°C 48.1°F8.9°C 90% 6.9 mph S11.1 kmh S 9.8 mph15.8 kmh 29.81 in1009.5 mb 0.00 in0.0 mm 0.00 in0.0 mm 0.00 in0.0 mm
03:00 AM 51.1°F10.6°C 48.2°F9.0°C 90% 6.8 mph S10.9 kmh S 8.3 mph13.4 kmh 29.81 in1009.5 mb 0.00 in0.0 mm 0.00 in0.0 mm 0.00 in0.0 mm
03:05 AM 51.1°F10.6°C 48.2°F9.0°C 90% 4.4 mph S7.1 kmh S 6.9 mph11.1 kmh 29.81 in1009.5 mb 0.00 in0.0 mm 0.00 in0.0 mm 0.00 in0.0 mm
03:10 AM 51.1°F10.6°C 48.2°F9.0°C 90% 5.8 mph S9.3 kmh S 7.6 mph12.2 kmh 29.81 in1009.5 mb 0.00 in0.0 mm 0.00 in0.0 mm 0.00 in0.0 mm
03:15 AM 51.0°F10.6°C 47.8°F8.8°C 89% 7.7 mph S12.4 kmh S 10.7 mph17.2 kmh 29.81 in1009.5 mb 0.00 in0.0 mm 0.00 in0.0 mm 0.00 in0.0 mm
03:20 AM 50.9°F10.5°C 47.8°F8.8°C 89% 5.0 mph S8.0 kmh S 8.3 mph13.4 kmh 29.81 in1009.5 mb 0.00 in0.0 mm 0.00 in0.0 mm 0.00 in0.0 mm
03:25 AM 50.9°F10.5°C 47.8°F8.8°C 89% 5.0 mph S8.0 kmh S 7.6 mph12.2 kmh 29.81 in1009.5 mb 0.00 in0.0 mm 0.00 in0.0 mm 0.00 in0.0 mm
03:30 AM 50.9°F10.5°C 47.8°F8.8°C 89% 5.4 mph SSW8.7 kmh SSW 7.6 mph12.2 kmh 29.81 in1009.5 mb 0.00 in0.0 mm 0.00 in0.0 mm 0.00 in0.0 mm
03:35 AM 51.0°F10.6°C 47.5°F8.6°C 88% 5.1 mph S8.2 kmh S 9.2 mph14.8 kmh 29.81 in1009.5 mb 0.00 in0.0 mm 0.00 in0.0 mm 0.00 in0.0 mm
03:40 AM 51.1°F10.6°C 47.7°F8.7°C 88% 4.4 mph S7.1 kmh S 6.9 mph11.1 kmh 29.81 in1009.5 mb 0.00 in0.0 mm 0.00 in0.0 mm 0.00 in0.0 mm
03:45 AM 51.0°F10.6°C 47.5°F8.6°C 88% 5.2 mph S8.4 kmh S 10.7 mph17.2 kmh 29.81 in1009.5 mb 0.00 in0.0 mm 0.00 in0.0 mm 0.00 in0.0 mm
03:50 AM 50.9°F10.5°C 47.5°F8.6°C 88% 5.3 mph SE8.5 kmh SE 9.8 mph15.8 kmh 29.81 in1009.5 mb 0.00 in0.0 mm 0.00 in0.0 mm 0.00 in0.0 mm
03:55 AM 50.9°F10.5°C 47.2°F8.4°C 87% 5.4 mph S8.7 kmh S 8.3 mph13.4 kmh 29.81 in1009.5 mb 0.00 in0.0 mm 0.00 in0.0 mm 0.00 in0.0 mm
04:00 AM 50.9°F10.5°C 47.2°F8.4°C 87% 5.6 mph S9.0 kmh S 9.2 mph14.8 kmh 29.81 in1009.5 mb 0.00 in0.0 mm 0.00 in0.0 mm 0.00 in0.0 mm
04:05 AM 50.9°F10.5°C 47.2°F8.4°C 87% 3.8 mph SW6.1 kmh SW 4.5 mph7.2 kmh 29.81 in1009.5 mb 0.00 in0.0 mm 0.00 in0.0 mm 0.00 in0.0 mm
04:10 AM 50.8°F10.4°C 47.1°F8.4°C 87% 3.1 mph SSW5.0 kmh SSW 4.5 mph7.2 kmh 29.82 in1009.8 mb 0.00 in0.0 mm 0.00 in0.0 mm 0.00 in0.0 mm
04:15 AM 50.7°F10.4°C 47.0°F8.3°C 87% 2.3 mph S3.7 kmh S 3.8 mph6.1 kmh 29.82 in1009.8 mb 0.00 in0.0 mm 0.00 in0.0 mm 0.00 in0.0 mm
04:20 AM 50.5°F10.3°C 46.8°F8.2°C 87% 3.0 mph S4.8 kmh S 6.9 mph11.1 kmh 29.82 in1009.8 mb 0.00 in0.0 mm 0.00 in0.0 mm 0.00 in0.0 mm
04:25 AM 50.5°F10.3°C 46.8°F8.2°C 87% 1.9 mph SSE3.1 kmh SSE 3.1 mph5.0 kmh 29.82 in1009.8 mb 0.00 in0.0 mm 0.00 in0.0 mm 0.00 in0.0 mm
04:30 AM 50.5°F10.3°C 46.8°F8.2°C 87% 2.2 mph ESE3.5 kmh ESE 4.5 mph7.2 kmh 29.82 in1009.8 mb 0.00 in0.0 mm 0.00 in0.0 mm 0.00 in0.0 mm
04:35 AM 50.5°F10.3°C 46.8°F8.2°C 87% 0.7 mph SE1.1 kmh SE 2.2 mph3.5 kmh 29.82 in1009.8 mb 0.00 in0.0 mm 0.00 in0.0 mm 0.00 in0.0 mm
04:40 AM 50.5°F10.3°C 46.8°F8.2°C 87% 1.3 mph SSE2.1 kmh SSE 3.1 mph5.0 kmh 29.83 in1010.2 mb 0.00 in0.0 mm 0.00 in0.0 mm 0.00 in0.0 mm
04:45 AM 50.5°F10.3°C 46.8°F8.2°C 87% 2.1 mph SSW3.4 kmh SSW 3.8 mph6.1 kmh 29.82 in1009.8 mb 0.00 in0.0 mm 0.00 in0.0 mm 0.00 in0.0 mm
04:50 AM 50.5°F10.3°C 46.8°F8.2°C 87% 2.5 mph S4.0 kmh S 3.8 mph6.1 kmh 29.82 in1009.8 mb 0.00 in0.0 mm 0.00 in0.0 mm 0.00 in0.0 mm
04:55 AM 50.5°F10.3°C 46.8°F8.2°C 87% 2.0 mph SW3.2 kmh SW 3.8 mph6.1 kmh 29.83 in1010.2 mb 0.00 in0.0 mm 0.00 in0.0 mm 0.00 in0.0 mm
05:00 AM 50.5°F10.3°C 46.8°F8.2°C 87% 1.2 mph SW1.9 kmh SW 3.1 mph5.0 kmh 29.83 in1010.2 mb 0.00 in0.0 mm 0.00 in0.0 mm 0.00 in0.0 mm
05:05 AM 50.5°F10.3°C 46.8°F8.2°C 87% Calm Calm 0.7 mph1.1 kmh 29.82 in1009.8 mb 0.00 in0.0 mm 0.00 in0.0 mm 0.00 in0.0 mm
05:10 AM 50.5°F10.3°C 46.8°F8.2°C 87% 0.8 mph N1.3 kmh N 2.2 mph3.5 kmh 29.82 in1009.8 mb 0.00 in0.0 mm 0.00 in0.0 mm 0.00 in0.0 mm
05:15 AM 50.4°F10.2°C 46.5°F8.1°C 86% 2.5 mph E4.0 kmh E 4.5 mph7.2 kmh 29.82 in1009.8 mb 0.00 in0.0 mm 0.00 in0.0 mm 0.00 in0.0 mm
05:20 AM 50.3°F10.2°C 46.3°F7.9°C 86% 3.5 mph SE5.6 kmh SE 9.8 mph15.8 kmh 29.83 in1010.2 mb 0.00 in0.0 mm 0.00 in0.0 mm 0.00 in0.0 mm
05:25 AM 50.3°F10.2°C 46.3°F7.9°C 86% 3.0 mph SE4.8 kmh SE 6.0 mph9.7 kmh 29.82 in1009.8 mb 0.00 in0.0 mm 0.00 in0.0 mm 0.00 in0.0 mm
05:30 AM 50.4°F10.2°C 46.3°F7.9°C 86% 3.4 mph SE5.5 kmh SE 5.4 mph8.7 kmh 29.82 in1009.8 mb 0.00 in0.0 mm 0.00 in0.0 mm 0.00 in0.0 mm
05:35 AM 50.4°F10.2°C 46.6°F8.1°C 87% 3.9 mph S6.3 kmh S 6.9 mph11.1 kmh 29.83 in1010.2 mb 0.00 in0.0 mm 0.00 in0.0 mm 0.00 in0.0 mm
05:40 AM 50.5°F10.3°C 46.8°F8.2°C 87% 4.9 mph SSE7.9 kmh SSE 6.9 mph11.1 kmh 29.83 in1010.2 mb 0.00 in0.0 mm 0.00 in0.0 mm 0.00 in0.0 mm
05:45 AM 50.6°F10.3°C 46.8°F8.2°C 87% 2.8 mph SW4.5 kmh SW 9.8 mph15.8 kmh 29.83 in1010.2 mb 0.00 in0.0 mm 0.00 in0.0 mm 0.00 in0.0 mm
05:50 AM 50.7°F10.4°C 47.0°F8.3°C 87% 3.5 mph SW5.6 kmh SW 5.4 mph8.7 kmh 29.83 in1010.2 mb 0.00 in0.0 mm 0.00 in0.0 mm 0.00 in0.0 mm
05:55 AM 50.7°F10.4°C 47.0°F8.3°C 87% 2.2 mph S3.5 kmh S 3.8 mph6.1 kmh 29.83 in1010.2 mb 0.00 in0.0 mm 0.00 in0.0 mm 0.00 in0.0 mm
06:00 AM 50.7°F10.4°C 47.0°F8.3°C 87% 2.7 mph SE4.3 kmh SE 4.5 mph7.2 kmh 29.83 in1010.2 mb 0.00 in0.0 mm 0.00 in0.0 mm 0.00 in0.0 mm
06:05 AM 50.7°F10.4°C 47.0°F8.3°C 87% 3.1 mph S5.0 kmh S 4.5 mph7.2 kmh 29.83 in1010.2 mb 0.00 in0.0 mm 0.00 in0.0 mm 0.00 in0.0 mm
06:10 AM 50.7°F10.4°C 47.0°F8.3°C 87% 2.9 mph S4.7 kmh S 4.5 mph7.2 kmh 29.83 in1010.2 mb 0.00 in0.0 mm 0.00 in0.0 mm 0.00 in0.0 mm
06:15 AM 50.7°F10.4°C 47.0°F8.3°C 87% 2.6 mph SW4.2 kmh SW 4.5 mph7.2 kmh 29.83 in1010.2 mb 0.00 in0.0 mm 0.00 in0.0 mm 0.00 in0.0 mm
06:20 AM 50.7°F10.4°C 47.0°F8.3°C 87% 6.0 mph S9.7 kmh S 8.3 mph13.4 kmh 29.82 in1009.8 mb 0.00 in0.0 mm 0.00 in0.0 mm 0.00 in0.0 mm
06:25 AM 50.7°F10.4°C 47.0°F8.3°C 87% 2.7 mph SSE4.3 kmh SSE 3.8 mph6.1 kmh 29.83 in1010.2 mb 0.00 in0.0 mm 0.00 in0.0 mm 0.00 in0.0 mm
06:30 AM 50.7°F10.4°C 47.0°F8.3°C 87% 2.3 mph S3.7 kmh S 3.8 mph6.1 kmh 29.83 in1010.2 mb 0.00 in0.0 mm 0.00 in0.0 mm 0.00 in0.0 mm
06:35 AM 50.7°F10.4°C 47.0°F8.3°C 87% 2.5 mph SW4.0 kmh SW 3.8 mph6.1 kmh 29.83 in1010.2 mb 0.00 in0.0 mm 0.00 in0.0 mm 0.00 in0.0 mm
06:40 AM 50.7°F10.4°C 47.0°F8.3°C 87% 2.6 mph SW4.2 kmh SW 4.5 mph7.2 kmh 29.83 in1010.2 mb 0.00 in0.0 mm 0.00 in0.0 mm 0.00 in0.0 mm
06:45 AM 50.7°F10.4°C 47.0°F8.3°C 87% 2.2 mph SW3.5 kmh SW 3.8 mph6.1 kmh 29.83 in1010.2 mb 0.00 in0.0 mm 0.00 in0.0 mm 0.00 in0.0 mm
06:50 AM 50.7°F10.4°C 47.0°F8.3°C 87% 1.2 mph WSW1.9 kmh WSW 3.1 mph5.0 kmh 29.83 in1010.2 mb 0.00 in0.0 mm 0.00 in0.0 mm 0.00 in0.0 mm
06:55 AM 50.7°F10.4°C 47.0°F8.3°C 87% 3.5 mph S5.6 kmh S 6.0 mph9.7 kmh 29.83 in1010.2 mb 0.00 in0.0 mm 0.00 in0.0 mm 0.00 in0.0 mm
07:00 AM 50.7°F10.4°C 47.0°F8.3°C 87% 2.7 mph SW4.3 kmh SW 5.4 mph8.7 kmh 29.83 in1010.2 mb 0.00 in0.0 mm 0.00 in0.0 mm 0.00 in0.0 mm
07:05 AM 50.7°F10.4°C 47.0°F8.3°C 87% 4.1 mph SW6.6 kmh SW 5.4 mph8.7 kmh 29.83 in1010.2 mb 0.00 in0.0 mm 0.00 in0.0 mm 0.00 in0.0 mm
07:10 AM 50.7°F10.4°C 47.0°F8.3°C 87% 5.1 mph S8.2 kmh S 8.3 mph13.4 kmh 29.84 in1010.5 mb 0.00 in0.0 mm 0.00 in0.0 mm 0.00 in0.0 mm
07:15 AM 50.7°F10.4°C 47.0°F8.3°C 87% 4.4 mph SW7.1 kmh SW 6.0 mph9.7 kmh 29.84 in1010.5 mb 0.00 in0.0 mm 0.00 in0.0 mm 0.00 in0.0 mm
07:20 AM 50.7°F10.4°C 47.0°F8.3°C 87% 6.2 mph SW10.0 kmh SW 8.3 mph13.4 kmh 29.84 in1010.5 mb 0.00 in0.0 mm 0.00 in0.0 mm 0.00 in0.0 mm
07:25 AM 50.7°F10.4°C 47.0°F8.3°C 87% 5.2 mph WSW8.4 kmh WSW 6.0 mph9.7 kmh 29.85 in1010.8 mb 0.00 in0.0 mm 0.00 in0.0 mm 0.00 in0.0 mm
07:30 AM 50.7°F10.4°C 47.0°F8.3°C 87% 4.7 mph SW7.6 kmh SW 6.9 mph11.1 kmh 29.84 in1010.5 mb 0.00 in0.0 mm 0.00 in0.0 mm 0.00 in0.0 mm
07:35 AM 50.6°F10.3°C 46.9°F8.3°C 87% 2.0 mph WSW3.2 kmh WSW 3.8 mph6.1 kmh 29.84 in1010.5 mb 0.00 in0.0 mm 0.00 in0.0 mm 0.00 in0.0 mm
07:40 AM 50.5°F10.3°C 46.8°F8.2°C 87% 1.4 mph W2.3 kmh W 3.8 mph6.1 kmh 29.84 in1010.5 mb 0.00 in0.0 mm 0.00 in0.0 mm 0.00 in0.0 mm
07:45 AM 50.5°F10.3°C 46.8°F8.2°C 87% 1.3 mph WNW2.1 kmh WNW 3.1 mph5.0 kmh 29.84 in1010.5 mb 0.00 in0.0 mm 0.00 in0.0 mm 0.00 in0.0 mm
07:50 AM 50.5°F10.3°C 46.8°F8.2°C 87% 0.5 mph WNW0.8 kmh WNW 2.2 mph3.5 kmh 29.84 in1010.5 mb 0.00 in0.0 mm 0.00 in0.0 mm 0.00 in0.0 mm
07:55 AM 50.5°F10.3°C 46.8°F8.2°C 87% 0.6 mph NE1.0 kmh NE 2.2 mph3.5 kmh 29.84 in1010.5 mb 0.00 in0.0 mm 0.00 in0.0 mm 0.00 in0.0 mm
08:00 AM 50.5°F10.3°C 46.8°F8.2°C 87% 0.3 mph NE0.5 kmh NE 1.6 mph2.6 kmh 29.84 in1010.5 mb 0.00 in0.0 mm 0.00 in0.0 mm 0.00 in0.0 mm
08:05 AM 50.5°F10.3°C 46.8°F8.2°C 87% 0.7 mph 1.1 kmh 1.6 mph2.6 kmh 29.84 in1010.5 mb 0.00 in0.0 mm 0.00 in0.0 mm 0.00 in0.0 mm
08:10 AM 50.5°F10.3°C 46.8°F8.2°C 87% 1.6 mph NW2.6 kmh NW 3.1 mph5.0 kmh 29.84 in1010.5 mb 0.00 in0.0 mm 0.00 in0.0 mm 0.00 in0.0 mm
08:15 AM 50.7°F10.4°C 46.9°F8.3°C 87% 1.9 mph 3.1 kmh 3.1 mph5.0 kmh 29.84 in1010.5 mb 0.00 in0.0 mm 0.00 in0.0 mm 0.00 in0.0 mm
08:20 AM 50.7°F10.4°C 47.0°F8.3°C 87% 2.6 mph N4.2 kmh N 3.8 mph6.1 kmh 29.84 in1010.5 mb 0.00 in0.0 mm 0.00 in0.0 mm 0.00 in0.0 mm
08:25 AM 50.7°F10.4°C 47.0°F8.3°C 87% 2.2 mph N3.5 kmh N 4.5 mph7.2 kmh 29.84 in1010.5 mb 0.00 in0.0 mm 0.00 in0.0 mm 0.00 in0.0 mm
08:30 AM 50.9°F10.5°C 47.2°F8.4°C 87% 2.2 mph NNE3.5 kmh NNE 4.5 mph7.2 kmh 29.84 in1010.5 mb 0.00 in0.0 mm 0.00 in0.0 mm 0.00 in0.0 mm
08:35 AM 50.9°F10.5°C 47.2°F8.4°C 87% 2.2 mph N3.5 kmh N 3.1 mph5.0 kmh 29.84 in1010.5 mb 0.00 in0.0 mm 0.00 in0.0 mm 0.00 in0.0 mm
08:40 AM 51.0°F10.6°C 47.6°F8.7°C 88% 3.2 mph N5.1 kmh N 6.0 mph9.7 kmh 29.84 in1010.5 mb 0.00 in0.0 mm 0.00 in0.0 mm 0.00 in0.0 mm
08:45 AM 51.1°F10.6°C 47.7°F8.7°C 88% 5.6 mph N9.0 kmh N 7.6 mph12.2 kmh 29.84 in1010.5 mb 0.00 in0.0 mm 0.00 in0.0 mm 0.00 in0.0 mm
08:50 AM 51.1°F10.6°C 47.7°F8.7°C 88% 4.4 mph N7.1 kmh N 6.0 mph9.7 kmh 29.84 in1010.5 mb 0.00 in0.0 mm 0.00 in0.0 mm 0.00 in0.0 mm
08:55 AM 51.2°F10.7°C 47.7°F8.7°C 88% 3.4 mph N5.5 kmh N 5.4 mph8.7 kmh 29.84 in1010.5 mb 0.00 in0.0 mm 0.00 in0.0 mm 0.00 in0.0 mm
09:00 AM 51.3°F10.7°C 47.9°F8.8°C 88% 2.8 mph N4.5 kmh N 5.4 mph8.7 kmh 29.84 in1010.5 mb 0.00 in0.0 mm 0.00 in0.0 mm 0.00 in0.0 mm
09:05 AM 51.5°F10.8°C 48.1°F8.9°C 88% 3.8 mph NNW6.1 kmh NNW 5.4 mph8.7 kmh 29.84 in1010.5 mb 0.00 in0.0 mm 0.00 in0.0 mm 0.00 in0.0 mm
09:10 AM 51.8°F11.0°C 48.6°F9.2°C 89% 4.0 mph N6.4 kmh N 5.4 mph8.7 kmh 29.84 in1010.5 mb 0.00 in0.0 mm 0.00 in0.0 mm 0.00 in0.0 mm
09:15 AM 52.1°F11.2°C 48.9°F9.4°C 89% 3.4 mph NNW5.5 kmh NNW 6.0 mph9.7 kmh 29.84 in1010.5 mb 0.00 in0.0 mm 0.00 in0.0 mm 0.00 in0.0 mm
09:20 AM 52.3°F11.3°C 49.1°F9.5°C 89% 2.4 mph NNW3.9 kmh NNW 5.4 mph8.7 kmh 29.84 in1010.5 mb 0.00 in0.0 mm 0.00 in0.0 mm 0.00 in0.0 mm
09:25 AM 52.3°F11.3°C 49.2°F9.6°C 89% 1.9 mph NNE3.1 kmh NNE 3.1 mph5.0 kmh 29.84 in1010.5 mb 0.00 in0.0 mm 0.00 in0.0 mm 0.00 in0.0 mm
09:30 AM 52.4°F11.3°C 49.3°F9.6°C 89% 1.9 mph SW3.1 kmh SW 3.8 mph6.1 kmh 29.84 in1010.5 mb 0.00 in0.0 mm 0.00 in0.0 mm 0.00 in0.0 mm
09:35 AM 52.5°F11.4°C 49.4°F9.7°C 89% 3.2 mph SW5.1 kmh SW 4.5 mph7.2 kmh 29.85 in1010.8 mb 0.00 in0.0 mm 0.00 in0.0 mm 0.00 in0.0 mm
09:40 AM 52.5°F11.4°C 49.4°F9.7°C 89% 7.7 mph S12.4 kmh S 13.6 mph21.9 kmh 29.85 in1010.8 mb 0.00 in0.0 mm 0.00 in0.0 mm 0.00 in0.0 mm
09:45 AM 52.5°F11.4°C 49.3°F9.6°C 89% 7.6 mph S12.2 kmh S 11.4 mph18.3 kmh 29.86 in1011.2 mb 0.00 in0.0 mm 0.00 in0.0 mm 0.00 in0.0 mm
09:50 AM 52.3°F11.3°C 49.2°F9.6°C 89% 7.1 mph S11.4 kmh S 11.4 mph18.3 kmh 29.86 in1011.2 mb 0.00 in0.0 mm 0.00 in0.0 mm 0.00 in0.0 mm
09:55 AM 52.4°F11.3°C 49.1°F9.5°C 88% 4.5 mph SSW7.2 kmh SSW 7.6 mph12.2 kmh 29.86 in1011.2 mb 0.00 in0.0 mm 0.00 in0.0 mm 0.00 in0.0 mm
10:00 AM 52.5°F11.4°C 49.1°F9.5°C 88% 4.1 mph S6.6 kmh S 8.3 mph13.4 kmh 29.86 in1011.2 mb 0.00 in0.0 mm 0.00 in0.0 mm 0.00 in0.0 mm
10:05 AM 52.5°F11.4°C 49.1°F9.5°C 88% 1.6 mph S2.6 kmh S 2.2 mph3.5 kmh 29.86 in1011.2 mb 0.00 in0.0 mm 0.00 in0.0 mm 0.00 in0.0 mm
10:10 AM 52.5°F11.4°C 49.1°F9.5°C 88% 4.1 mph SSE6.6 kmh SSE 9.2 mph14.8 kmh 29.86 in1011.2 mb 0.00 in0.0 mm 0.00 in0.0 mm 0.00 in0.0 mm
10:15 AM 52.5°F11.4°C 49.1°F9.5°C 88% 6.3 mph ESE10.1 kmh ESE 11.4 mph18.3 kmh 29.85 in1010.8 mb 0.00 in0.0 mm 0.00 in0.0 mm 0.00 in0.0 mm
10:20 AM 52.6°F11.4°C 49.1°F9.5°C 88% 6.8 mph SE10.9 kmh SE 10.7 mph17.2 kmh 29.86 in1011.2 mb 0.00 in0.0 mm 0.00 in0.0 mm 0.00 in0.0 mm
10:25 AM 52.7°F11.5°C 49.2°F9.6°C 88% 5.7 mph SSE9.2 kmh SSE 9.2 mph14.8 kmh 29.86 in1011.2 mb 0.00 in0.0 mm 0.00 in0.0 mm 0.00 in0.0 mm
10:30 AM 52.9°F11.6°C 49.4°F9.7°C 88% 6.8 mph SSE10.9 kmh SSE 12.1 mph19.5 kmh 29.86 in1011.2 mb 0.00 in0.0 mm 0.00 in0.0 mm 0.00 in0.0 mm
10:35 AM 53.2°F11.8°C 49.7°F9.8°C 88% 3.0 mph S4.8 kmh S 6.9 mph11.1 kmh 29.86 in1011.2 mb 0.00 in0.0 mm 0.00 in0.0 mm 0.00 in0.0 mm
10:40 AM 53.7°F12.1°C 50.0°F10.0°C 87% 3.7 mph SSW6.0 kmh SSW 7.6 mph12.2 kmh 29.85 in1010.8 mb 0.00 in0.0 mm 0.00 in0.0 mm 0.00 in0.0 mm
10:45 AM 53.9°F12.2°C 49.9°F9.9°C 86% 3.4 mph S5.5 kmh S 5.4 mph8.7 kmh 29.85 in1010.8 mb 0.00 in0.0 mm 0.00 in0.0 mm 0.00 in0.0 mm
10:50 AM 54.1°F12.3°C 49.7°F9.8°C 85% 4.2 mph SSW6.8 kmh SSW 9.2 mph14.8 kmh 29.85 in1010.8 mb 0.00 in0.0 mm 0.00 in0.0 mm 0.00 in0.0 mm
10:55 AM 54.4°F12.4°C 49.4°F9.7°C 83% 5.2 mph S8.4 kmh S 9.2 mph14.8 kmh 29.85 in1010.8 mb 0.00 in0.0 mm 0.00 in0.0 mm 0.00 in0.0 mm
11:00 AM 54.6°F12.6°C 49.3°F9.6°C 82% 6.4 mph SSE10.3 kmh SSE 13.0 mph20.9 kmh 29.85 in1010.8 mb 0.00 in0.0 mm 0.00 in0.0 mm 0.00 in0.0 mm
11:05 AM 54.7°F12.6°C 49.0°F9.4°C 81% 7.5 mph S12.1 kmh S 10.7 mph17.2 kmh 29.85 in1010.8 mb 0.00 in0.0 mm 0.00 in0.0 mm 0.00 in0.0 mm
11:10 AM 54.7°F12.6°C 48.6°F9.2°C 80% 4.8 mph SSE7.7 kmh SSE 9.8 mph15.8 kmh 29.84 in1010.5 mb 0.00 in0.0 mm 0.00 in0.0 mm 0.00 in0.0 mm
11:15 AM 54.9°F12.7°C 48.1°F8.9°C 78% 6.1 mph SSW9.8 kmh SSW 10.7 mph17.2 kmh 29.84 in1010.5 mb 0.00 in0.0 mm 0.00 in0.0 mm 0.00 in0.0 mm
11:20 AM 54.8°F12.7°C 48.1°F8.9°C 78% 7.2 mph SW11.6 kmh SW 10.7 mph17.2 kmh 29.84 in1010.5 mb 0.00 in0.0 mm 0.00 in0.0 mm 0.00 in0.0 mm
11:25 AM 54.6°F12.6°C 48.6°F9.2°C 80% 8.5 mph SW13.7 kmh SW 12.1 mph19.5 kmh 29.84 in1010.5 mb 0.00 in0.0 mm 0.00 in0.0 mm 0.00 in0.0 mm
11:30 AM 54.3°F12.4°C 48.3°F9.1°C 80% 9.5 mph SSW15.3 kmh SSW 13.0 mph20.9 kmh 29.85 in1010.8 mb 0.00 in0.0 mm 0.00 in0.0 mm 0.00 in0.0 mm
11:35 AM 54.0°F12.2°C 48.0°F8.9°C 80% 8.5 mph S13.7 kmh S 15.2 mph24.5 kmh 29.85 in1010.8 mb 0.00 in0.0 mm 0.00 in0.0 mm 0.00 in0.0 mm
11:40 AM 53.7°F12.1°C 47.7°F8.7°C 80% 4.8 mph SSW7.7 kmh SSW 8.3 mph13.4 kmh 29.85 in1010.8 mb 0.00 in0.0 mm 0.00 in0.0 mm 0.00 in0.0 mm
11:45 AM 53.6°F12.0°C 47.8°F8.8°C 81% 4.8 mph S7.7 kmh S 9.2 mph14.8 kmh 29.84 in1010.5 mb 0.00 in0.0 mm 0.00 in0.0 mm 0.00 in0.0 mm
11:50 AM 53.6°F12.0°C 47.9°F8.8°C 81% 3.9 mph S6.3 kmh S 7.6 mph12.2 kmh 29.84 in1010.5 mb 0.00 in0.0 mm 0.00 in0.0 mm 0.00 in0.0 mm
11:55 AM 53.6°F12.0°C 47.9°F8.8°C 81% 5.8 mph S9.3 kmh S 7.6 mph12.2 kmh 29.84 in1010.5 mb 0.00 in0.0 mm 0.00 in0.0 mm 0.00 in0.0 mm
12:00 PM 53.7°F12.1°C 48.2°F9.0°C 81% 5.0 mph S8.0 kmh S 8.3 mph13.4 kmh 29.84 in1010.5 mb 0.00 in0.0 mm 0.00 in0.0 mm 0.00 in0.0 mm
12:05 PM 53.8°F12.1°C 48.4°F9.1°C 82% 3.8 mph SSW6.1 kmh SSW 6.0 mph9.7 kmh 29.84 in1010.5 mb 0.00 in0.0 mm 0.00 in0.0 mm 0.00 in0.0 mm
12:10 PM 54.6°F12.6°C 48.9°F9.4°C 81% 9.0 mph S14.5 kmh S 12.1 mph19.5 kmh 29.83 in1010.2 mb 0.00 in0.0 mm 0.00 in0.0 mm 0.00 in0.0 mm
12:15 PM 54.7°F12.6°C 48.6°F9.2°C 80% 6.5 mph SSW10.5 kmh SSW 9.8 mph15.8 kmh 29.83 in1010.2 mb 0.00 in0.0 mm 0.00 in0.0 mm 0.00 in0.0 mm
12:20 PM 54.7°F12.6°C 48.6°F9.2°C 80% 5.2 mph SW8.4 kmh SW 9.2 mph14.8 kmh 29.84 in1010.5 mb 0.00 in0.0 mm 0.00 in0.0 mm 0.00 in0.0 mm
12:25 PM 54.7°F12.6°C 48.6°F9.2°C 80% 6.2 mph S10.0 kmh S 10.7 mph17.2 kmh 29.84 in1010.5 mb 0.00 in0.0 mm 0.00 in0.0 mm 0.00 in0.0 mm
12:30 PM 54.7°F12.6°C 48.6°F9.2°C 80% 5.8 mph S9.3 kmh S 8.3 mph13.4 kmh 29.84 in1010.5 mb 0.00 in0.0 mm 0.00 in0.0 mm 0.00 in0.0 mm
12:35 PM 54.7°F12.6°C 48.6°F9.2°C 80% 7.7 mph S12.4 kmh S 15.2 mph24.5 kmh 29.84 in1010.5 mb 0.00 in0.0 mm 0.00 in0.0 mm 0.00 in0.0 mm
12:40 PM 54.7°F12.6°C 48.5°F9.2°C 80% 4.8 mph SSE7.7 kmh SSE 9.2 mph14.8 kmh 29.83 in1010.2 mb 0.00 in0.0 mm 0.00 in0.0 mm 0.00 in0.0 mm
12:45 PM 55.0°F12.8°C 47.8°F8.8°C 77% 7.8 mph SE12.6 kmh SE 13.0 mph20.9 kmh 29.83 in1010.2 mb 0.00 in0.0 mm 0.00 in0.0 mm 0.00 in0.0 mm
12:50 PM 55.4°F13.0°C 48.1°F8.9°C 76% 8.1 mph SE13.0 kmh SE 13.0 mph20.9 kmh 29.82 in1009.8 mb 0.00 in0.0 mm 0.00 in0.0 mm 0.00 in0.0 mm
12:55 PM 55.7°F13.2°C 48.1°F8.9°C 75% 8.1 mph SSE13.0 kmh SSE 9.8 mph15.8 kmh 29.82 in1009.8 mb 0.00 in0.0 mm 0.00 in0.0 mm 0.00 in0.0 mm
01:00 PM 56.2°F13.4°C 48.3°F9.1°C 75% 7.2 mph SSE11.6 kmh SSE 14.5 mph23.3 kmh 29.82 in1009.8 mb 0.00 in0.0 mm 0.00 in0.0 mm 0.00 in0.0 mm
01:05 PM 56.3°F13.5°C 48.1°F8.9°C 74% 11.2 mph S18.0 kmh S 15.2 mph24.5 kmh 29.82 in1009.8 mb 0.00 in0.0 mm 0.00 in0.0 mm 0.00 in0.0 mm
01:10 PM 56.3°F13.5°C 47.8°F8.8°C 73% 12.7 mph SSE20.4 kmh SSE 15.9 mph25.6 kmh 29.82 in1009.8 mb 0.00 in0.0 mm 0.00 in0.0 mm 0.00 in0.0 mm
01:15 PM 56.6°F13.7°C 48.2°F9.0°C 74% 11.2 mph SSE18.0 kmh SSE 14.5 mph23.3 kmh 29.82 in1009.8 mb 0.00 in0.0 mm 0.00 in0.0 mm 0.00 in0.0 mm
01:20 PM 57.0°F13.9°C 48.4°F9.1°C 73% 6.2 mph S10.0 kmh S 10.7 mph17.2 kmh 29.81 in1009.5 mb 0.00 in0.0 mm 0.00 in0.0 mm 0.00 in0.0 mm
01:25 PM 57.3°F14.1°C 48.6°F9.2°C 73% 6.6 mph SE10.6 kmh SE 12.1 mph19.5 kmh 29.81 in1009.5 mb 0.00 in0.0 mm 0.00 in0.0 mm 0.00 in0.0 mm
01:30 PM 57.6°F14.2°C 48.6°F9.2°C 72% 8.7 mph S14.0 kmh S 12.1 mph19.5 kmh 29.81 in1009.5 mb 0.00 in0.0 mm 0.00 in0.0 mm 0.00 in0.0 mm
01:35 PM 57.6°F14.2°C 48.2°F9.0°C 71% 8.1 mph SSE13.0 kmh SSE 13.0 mph20.9 kmh 29.81 in1009.5 mb 0.00 in0.0 mm 0.00 in0.0 mm 0.00 in0.0 mm
01:40 PM 57.7°F14.3°C 48.5°F9.2°C 71% 8.0 mph S12.9 kmh S 13.0 mph20.9 kmh 29.81 in1009.5 mb 0.00 in0.0 mm 0.00 in0.0 mm 0.00 in0.0 mm
01:45 PM 57.7°F14.3°C 48.4°F9.1°C 71% 8.0 mph SSW12.9 kmh SSW 14.5 mph23.3 kmh 29.81 in1009.5 mb 0.00 in0.0 mm 0.00 in0.0 mm 0.00 in0.0 mm
01:50 PM 57.8°F14.3°C 48.5°F9.2°C 71% 6.1 mph SE9.8 kmh SE 9.8 mph15.8 kmh 29.81 in1009.5 mb 0.00 in0.0 mm 0.00 in0.0 mm 0.00 in0.0 mm
01:55 PM 58.1°F14.5°C 48.7°F9.3°C 71% 6.0 mph S9.7 kmh S 9.8 mph15.8 kmh 29.81 in1009.5 mb 0.00 in0.0 mm 0.00 in0.0 mm 0.00 in0.0 mm
02:00 PM 58.2°F14.6°C 48.8°F9.3°C 71% 9.7 mph SSE15.6 kmh SSE 14.5 mph23.3 kmh 29.81 in1009.5 mb 0.00 in0.0 mm 0.00 in0.0 mm 0.00 in0.0 mm
02:05 PM 58.1°F14.5°C 48.7°F9.3°C 71% 6.9 mph S11.1 kmh S 8.3 mph13.4 kmh 29.81 in1009.5 mb 0.00 in0.0 mm 0.00 in0.0 mm 0.00 in0.0 mm
02:10 PM 58.0°F14.4°C 48.6°F9.2°C 71% 8.4 mph S13.5 kmh S 14.5 mph23.3 kmh 29.81 in1009.5 mb 0.00 in0.0 mm 0.00 in0.0 mm 0.00 in0.0 mm
02:15 PM 57.8°F14.3°C 48.3°F9.1°C 71% 6.3 mph SSE10.1 kmh SSE 11.4 mph18.3 kmh 29.81 in1009.5 mb 0.00 in0.0 mm 0.00 in0.0 mm 0.00 in0.0 mm
02:20 PM 57.9°F14.4°C 48.6°F9.2°C 71% 4.5 mph SW7.2 kmh SW 6.0 mph9.7 kmh 29.81 in1009.5 mb 0.00 in0.0 mm 0.00 in0.0 mm 0.00 in0.0 mm
02:25 PM 58.2°F14.6°C 48.8°F9.3°C 71% 4.7 mph S7.6 kmh S 7.6 mph12.2 kmh 29.81 in1009.5 mb 0.00 in0.0 mm 0.00 in0.0 mm 0.00 in0.0 mm
02:30 PM 58.4°F14.7°C 48.7°F9.3°C 70% 2.3 mph S3.7 kmh S 4.5 mph7.2 kmh 29.81 in1009.5 mb 0.00 in0.0 mm 0.00 in0.0 mm 0.00 in0.0 mm
02:35 PM 58.4°F14.7°C 48.7°F9.3°C 70% 3.0 mph S4.8 kmh S 6.0 mph9.7 kmh 29.81 in1009.5 mb 0.00 in0.0 mm 0.00 in0.0 mm 0.00 in0.0 mm
02:40 PM 58.2°F14.6°C 48.5°F9.2°C 70% 3.3 mph SE5.3 kmh SE 6.9 mph11.1 kmh 29.81 in1009.5 mb 0.00 in0.0 mm 0.00 in0.0 mm 0.00 in0.0 mm
02:45 PM 58.0°F14.4°C 48.3°F9.1°C 70% 2.3 mph SE3.7 kmh SE 3.8 mph6.1 kmh 29.81 in1009.5 mb 0.00 in0.0 mm 0.00 in0.0 mm 0.00 in0.0 mm
02:50 PM 57.9°F14.4°C 48.2°F9.0°C 70% 1.5 mph NNW2.4 kmh NNW 2.2 mph3.5 kmh 29.81 in1009.5 mb 0.00 in0.0 mm 0.00 in0.0 mm 0.00 in0.0 mm
02:55 PM 57.9°F14.4°C 48.2°F9.0°C 70% 1.5 mph NW2.4 kmh NW 3.1 mph5.0 kmh 29.81 in1009.5 mb 0.00 in0.0 mm 0.00 in0.0 mm 0.00 in0.0 mm
03:00 PM 57.9°F14.4°C 48.6°F9.2°C 71% 0.7 mph NW1.1 kmh NW 2.2 mph3.5 kmh 29.81 in1009.5 mb 0.00 in0.0 mm 0.00 in0.0 mm 0.00 in0.0 mm
03:05 PM 58.1°F14.5°C 48.7°F9.3°C 71% 0.7 mph 1.1 kmh 1.6 mph2.6 kmh 29.81 in1009.5 mb 0.00 in0.0 mm 0.00 in0.0 mm 0.00 in0.0 mm
03:10 PM 58.0°F14.4°C 48.5°F9.2°C 70% 5.0 mph SW8.0 kmh SW 12.1 mph19.5 kmh 29.81 in1009.5 mb 0.00 in0.0 mm 0.00 in0.0 mm 0.00 in0.0 mm
03:15 PM 57.8°F14.3°C 48.1°F8.9°C 70% 4.8 mph S7.7 kmh S 9.2 mph14.8 kmh 29.81 in1009.5 mb 0.00 in0.0 mm 0.00 in0.0 mm 0.00 in0.0 mm
03:20 PM 57.5°F14.2°C 47.4°F8.6°C 69% 6.4 mph S10.3 kmh S 10.7 mph17.2 kmh 29.81 in1009.5 mb 0.00 in0.0 mm 0.00 in0.0 mm 0.00 in0.0 mm
03:25 PM 57.3°F14.1°C 47.2°F8.4°C 69% 2.9 mph S4.7 kmh S 6.0 mph9.7 kmh 29.81 in1009.5 mb 0.00 in0.0 mm 0.00 in0.0 mm 0.00 in0.0 mm
03:30 PM 57.1°F13.9°C 47.0°F8.3°C 69% 2.7 mph SSW4.3 kmh SSW 7.6 mph12.2 kmh 29.82 in1009.8 mb 0.00 in0.0 mm 0.00 in0.0 mm 0.00 in0.0 mm
03:35 PM 56.8°F13.8°C 46.8°F8.2°C 69% 4.7 mph SE7.6 kmh SE 7.6 mph12.2 kmh 29.82 in1009.8 mb 0.00 in0.0 mm 0.00 in0.0 mm 0.00 in0.0 mm
03:40 PM 56.7°F13.7°C 46.9°F8.3°C 70% 5.3 mph SSE8.5 kmh SSE 9.2 mph14.8 kmh 29.82 in1009.8 mb 0.00 in0.0 mm 0.00 in0.0 mm 0.00 in0.0 mm
03:45 PM 56.5°F13.6°C 46.9°F8.3°C 70% 3.3 mph S5.3 kmh S 5.4 mph8.7 kmh 29.81 in1009.5 mb 0.00 in0.0 mm 0.00 in0.0 mm 0.00 in0.0 mm
03:50 PM 56.4°F13.6°C 46.8°F8.2°C 70% 4.5 mph S7.2 kmh S 7.6 mph12.2 kmh 29.82 in1009.8 mb 0.00 in0.0 mm 0.00 in0.0 mm 0.00 in0.0 mm
03:55 PM 56.3°F13.5°C 46.6°F8.1°C 70% 3.7 mph SW6.0 kmh SW 6.0 mph9.7 kmh 29.82 in1009.8 mb 0.00 in0.0 mm 0.00 in0.0 mm 0.00 in0.0 mm
04:00 PM 56.1°F13.4°C 46.6°F8.1°C 70% 4.9 mph S7.9 kmh S 9.8 mph15.8 kmh 29.82 in1009.8 mb 0.00 in0.0 mm 0.00 in0.0 mm 0.00 in0.0 mm
04:05 PM 56.1°F13.4°C 46.8°F8.2°C 71% 2.2 mph SE3.5 kmh SE 3.1 mph5.0 kmh 29.82 in1009.8 mb 0.00 in0.0 mm 0.00 in0.0 mm 0.00 in0.0 mm
04:10 PM 56.0°F13.3°C 46.7°F8.2°C 71% 2.3 mph S3.7 kmh S 5.4 mph8.7 kmh 29.82 in1009.8 mb 0.00 in0.0 mm 0.00 in0.0 mm 0.00 in0.0 mm
04:15 PM 55.7°F13.2°C 46.5°F8.1°C 71% 2.0 mph SE3.2 kmh SE 4.5 mph7.2 kmh 29.82 in1009.8 mb 0.00 in0.0 mm 0.00 in0.0 mm 0.00 in0.0 mm
04:20 PM 55.5°F13.1°C 46.3°F7.9°C 71% 3.1 mph S5.0 kmh S 7.6 mph12.2 kmh 29.82 in1009.8 mb 0.00 in0.0 mm 0.00 in0.0 mm 0.00 in0.0 mm
04:25 PM 55.4°F13.0°C 46.1°F7.8°C 71% 4.5 mph SE7.2 kmh SE 9.2 mph14.8 kmh 29.82 in1009.8 mb 0.00 in0.0 mm 0.00 in0.0 mm 0.00 in0.0 mm
04:30 PM 55.2°F12.9°C 46.4°F8.0°C 72% 3.9 mph S6.3 kmh S 6.0 mph9.7 kmh 29.82 in1009.8 mb 0.00 in0.0 mm 0.00 in0.0 mm 0.00 in0.0 mm
04:35 PM 55.2°F12.9°C 46.3°F7.9°C 72% 3.1 mph SE5.0 kmh SE 6.0 mph9.7 kmh 29.82 in1009.8 mb 0.00 in0.0 mm 0.00 in0.0 mm 0.00 in0.0 mm
04:40 PM 55.0°F12.8°C 46.2°F7.9°C 72% 4.9 mph SE7.9 kmh SE 7.6 mph12.2 kmh 29.82 in1009.8 mb 0.00 in0.0 mm 0.00 in0.0 mm 0.00 in0.0 mm
04:45 PM 55.0°F12.8°C 46.3°F7.9°C 72% 6.1 mph SE9.8 kmh SE 8.3 mph13.4 kmh 29.82 in1009.8 mb 0.00 in0.0 mm 0.00 in0.0 mm 0.00 in0.0 mm
04:50 PM 55.1°F12.8°C 46.6°F8.1°C 73% 5.4 mph SE8.7 kmh SE 8.3 mph13.4 kmh 29.83 in1010.2 mb 0.00 in0.0 mm 0.00 in0.0 mm 0.00 in0.0 mm
04:55 PM 55.2°F12.9°C 46.7°F8.2°C 73% 3.6 mph S5.8 kmh S 6.0 mph9.7 kmh 29.83 in1010.2 mb 0.00 in0.0 mm 0.00 in0.0 mm 0.00 in0.0 mm
05:00 PM 55.2°F12.9°C 46.7°F8.2°C 73% 3.8 mph S6.1 kmh S 5.4 mph8.7 kmh 29.83 in1010.2 mb 0.00 in0.0 mm 0.00 in0.0 mm 0.00 in0.0 mm
05:05 PM 55.3°F12.9°C 46.8°F8.2°C 73% 2.0 mph SW3.2 kmh SW 4.5 mph7.2 kmh 29.83 in1010.2 mb 0.00 in0.0 mm 0.00 in0.0 mm 0.00 in0.0 mm
05:10 PM 55.3°F12.9°C 46.8°F8.2°C 73% 0.9 mph NE1.4 kmh NE 2.2 mph3.5 kmh 29.83 in1010.2 mb 0.00 in0.0 mm 0.00 in0.0 mm 0.00 in0.0 mm
05:15 PM 55.2°F12.9°C 46.7°F8.2°C 73% 0.4 mph WNW0.6 kmh WNW 1.6 mph2.6 kmh 29.84 in1010.5 mb 0.00 in0.0 mm 0.00 in0.0 mm 0.00 in0.0 mm
05:20 PM 55.0°F12.8°C 46.5°F8.1°C 73% 0.5 mph NNW0.8 kmh NNW 3.1 mph5.0 kmh 29.84 in1010.5 mb 0.00 in0.0 mm 0.00 in0.0 mm 0.00 in0.0 mm
05:25 PM 54.7°F12.6°C 46.8°F8.2°C 75% 3.3 mph NE5.3 kmh NE 4.5 mph7.2 kmh 29.84 in1010.5 mb 0.00 in0.0 mm 0.00 in0.0 mm 0.00 in0.0 mm
05:30 PM 54.2°F12.3°C 46.8°F8.2°C 76% 4.7 mph NE7.6 kmh NE 6.0 mph9.7 kmh 29.83 in1010.2 mb 0.00 in0.0 mm 0.00 in0.0 mm 0.00 in0.0 mm
05:35 PM 53.6°F12.0°C 46.4°F8.0°C 76% 4.8 mph NE7.7 kmh NE 6.0 mph9.7 kmh 29.84 in1010.5 mb 0.00 in0.0 mm 0.00 in0.0 mm 0.00 in0.0 mm
05:40 PM 53.2°F11.8°C 46.3°F7.9°C 77% 5.0 mph NE8.0 kmh NE 8.3 mph13.4 kmh 29.84 in1010.5 mb 0.00 in0.0 mm 0.00 in0.0 mm 0.00 in0.0 mm
05:45 PM 52.9°F11.6°C 46.3°F7.9°C 78% 5.2 mph NE8.4 kmh NE 7.6 mph12.2 kmh 29.84 in1010.5 mb 0.00 in0.0 mm 0.00 in0.0 mm 0.00 in0.0 mm
05:50 PM 52.7°F11.5°C 46.5°F8.1°C 79% 4.9 mph NE7.9 kmh NE 6.9 mph11.1 kmh 29.84 in1010.5 mb 0.00 in0.0 mm 0.00 in0.0 mm 0.00 in0.0 mm
05:55 PM 52.7°F11.5°C 46.7°F8.2°C 80% 4.1 mph NNE6.6 kmh NNE 6.0 mph9.7 kmh 29.84 in1010.5 mb 0.00 in0.0 mm 0.00 in0.0 mm 0.00 in0.0 mm
06:00 PM 52.7°F11.5°C 46.7°F8.2°C 80% 2.3 mph NE3.7 kmh NE 5.4 mph8.7 kmh 29.84 in1010.5 mb 0.00 in0.0 mm 0.00 in0.0 mm 0.00 in0.0 mm
06:05 PM 52.7°F11.5°C 46.7°F8.2°C 80% 1.6 mph E2.6 kmh E 2.2 mph3.5 kmh 29.84 in1010.5 mb 0.00 in0.0 mm 0.00 in0.0 mm 0.00 in0.0 mm
06:10 PM 52.5°F11.4°C 46.6°F8.1°C 80% 1.0 mph ENE1.6 kmh ENE 2.2 mph3.5 kmh 29.84 in1010.5 mb 0.00 in0.0 mm 0.00 in0.0 mm 0.00 in0.0 mm
06:15 PM 52.3°F11.3°C 46.4°F8.0°C 80% 1.5 mph N2.4 kmh N 3.1 mph5.0 kmh 29.84 in1010.5 mb 0.00 in0.0 mm 0.00 in0.0 mm 0.00 in0.0 mm
06:20 PM 52.2°F11.2°C 46.2°F7.9°C 80% 1.8 mph N2.9 kmh N 3.8 mph6.1 kmh 29.84 in1010.5 mb 0.00 in0.0 mm 0.00 in0.0 mm 0.00 in0.0 mm
06:25 PM 52.0°F11.1°C 46.1°F7.8°C 80% 4.2 mph N6.8 kmh N 6.0 mph9.7 kmh 29.84 in1010.5 mb 0.00 in0.0 mm 0.00 in0.0 mm 0.00 in0.0 mm
06:30 PM 52.0°F11.1°C 46.3°F7.9°C 81% 3.8 mph N6.1 kmh N 5.4 mph8.7 kmh 29.84 in1010.5 mb 0.00 in0.0 mm 0.00 in0.0 mm 0.00 in0.0 mm
06:35 PM 52.2°F11.2°C 46.5°F8.1°C 81% 3.5 mph NNW5.6 kmh NNW 5.4 mph8.7 kmh 29.84 in1010.5 mb 0.00 in0.0 mm 0.00 in0.0 mm 0.00 in0.0 mm
06:40 PM 52.2°F11.2°C 46.7°F8.2°C 82% 1.1 mph S1.8 kmh S 2.2 mph3.5 kmh 29.84 in1010.5 mb 0.00 in0.0 mm 0.00 in0.0 mm 0.00 in0.0 mm
06:45 PM 52.2°F11.2°C 46.8°F8.2°C 82% 1.0 mph NNE1.6 kmh NNE 2.2 mph3.5 kmh 29.84 in1010.5 mb 0.00 in0.0 mm 0.00 in0.0 mm 0.00 in0.0 mm
06:50 PM 52.0°F11.1°C 46.7°F8.2°C 82% 1.6 mph NE2.6 kmh NE 2.2 mph3.5 kmh 29.84 in1010.5 mb 0.00 in0.0 mm 0.00 in0.0 mm 0.00 in0.0 mm
06:55 PM 52.0°F11.1°C 46.7°F8.2°C 82% 1.9 mph NE3.1 kmh NE 3.1 mph5.0 kmh 29.85 in1010.8 mb 0.00 in0.0 mm 0.00 in0.0 mm 0.00 in0.0 mm
07:00 PM 51.8°F11.0°C 46.5°F8.1°C 82% 1.6 mph NE2.6 kmh NE 3.1 mph5.0 kmh 29.85 in1010.8 mb 0.00 in0.0 mm 0.00 in0.0 mm 0.00 in0.0 mm
07:05 PM 51.8°F11.0°C 46.5°F8.1°C 82% 1.7 mph E2.7 kmh E 3.8 mph6.1 kmh 29.85 in1010.8 mb 0.00 in0.0 mm 0.00 in0.0 mm 0.00 in0.0 mm
07:10 PM 51.8°F11.0°C 46.5°F8.1°C 82% 0.3 mph NW0.5 kmh NW 1.6 mph2.6 kmh 29.85 in1010.8 mb 0.00 in0.0 mm 0.00 in0.0 mm 0.00 in0.0 mm
07:15 PM 51.8°F11.0°C 46.5°F8.1°C 82% 0.5 mph WNW0.8 kmh WNW 1.6 mph2.6 kmh 29.85 in1010.8 mb 0.00 in0.0 mm 0.00 in0.0 mm 0.00 in0.0 mm
07:20 PM 51.8°F11.0°C 46.5°F8.1°C 82% 0.2 mph NNW0.3 kmh NNW 1.6 mph2.6 kmh 29.85 in1010.8 mb 0.00 in0.0 mm 0.00 in0.0 mm 0.00 in0.0 mm
07:25 PM 51.8°F11.0°C 46.5°F8.1°C 82% 0.7 mph N1.1 kmh N 3.8 mph6.1 kmh 29.85 in1010.8 mb 0.00 in0.0 mm 0.00 in0.0 mm 0.00 in0.0 mm
07:30 PM 51.8°F11.0°C 46.5°F8.1°C 82% 2.3 mph NE3.7 kmh NE 3.8 mph6.1 kmh 29.85 in1010.8 mb 0.00 in0.0 mm 0.00 in0.0 mm 0.00 in0.0 mm
07:35 PM 51.8°F11.0°C 46.8°F8.2°C 83% 1.8 mph NE2.9 kmh NE 3.1 mph5.0 kmh 29.85 in1010.8 mb 0.00 in0.0 mm 0.00 in0.0 mm 0.00 in0.0 mm
07:40 PM 51.7°F10.9°C 46.7°F8.2°C 83% 2.4 mph NNW3.9 kmh NNW 3.8 mph6.1 kmh 29.85 in1010.8 mb 0.00 in0.0 mm 0.00 in0.0 mm 0.00 in0.0 mm
07:45 PM 51.6°F10.9°C 46.6°F8.1°C 83% 2.6 mph NNE4.2 kmh NNE 3.8 mph6.1 kmh 29.85 in1010.8 mb 0.00 in0.0 mm 0.00 in0.0 mm 0.00 in0.0 mm
07:50 PM 51.6°F10.9°C 46.6°F8.1°C 83% 1.8 mph N2.9 kmh N 3.8 mph6.1 kmh 29.86 in1011.2 mb 0.00 in0.0 mm 0.00 in0.0 mm 0.00 in0.0 mm
07:55 PM 51.6°F10.9°C 46.6°F8.1°C 83% 0.2 mph E0.3 kmh E 0.7 mph1.1 kmh 29.86 in1011.2 mb 0.00 in0.0 mm 0.00 in0.0 mm 0.00 in0.0 mm
08:00 PM 51.4°F10.8°C 46.5°F8.1°C 83% 1.0 mph NE1.6 kmh NE 2.2 mph3.5 kmh 29.86 in1011.2 mb 0.00 in0.0 mm 0.00 in0.0 mm 0.00 in0.0 mm
08:05 PM 51.4°F10.8°C 46.5°F8.1°C 83% 1.6 mph NE2.6 kmh NE 2.2 mph3.5 kmh 29.86 in1011.2 mb 0.00 in0.0 mm 0.00 in0.0 mm 0.00 in0.0 mm
08:10 PM 51.4°F10.8°C 46.5°F8.1°C 83% 1.8 mph NNE2.9 kmh NNE 3.1 mph5.0 kmh 29.86 in1011.2 mb 0.00 in0.0 mm 0.00 in0.0 mm 0.00 in0.0 mm
08:15 PM 51.4°F10.8°C 46.5°F8.1°C 83% 2.3 mph NNE3.7 kmh NNE 3.8 mph6.1 kmh 29.86 in1011.2 mb 0.00 in0.0 mm 0.00 in0.0 mm 0.00 in0.0 mm
08:20 PM 51.4°F10.8°C 46.6°F8.1°C 84% 1.9 mph NE3.1 kmh NE 3.1 mph5.0 kmh 29.87 in1011.5 mb 0.00 in0.0 mm 0.00 in0.0 mm 0.00 in0.0 mm
08:25 PM 51.5°F10.8°C 46.8°F8.2°C 84% 1.6 mph NE2.6 kmh NE 3.1 mph5.0 kmh 29.86 in1011.2 mb 0.00 in0.0 mm 0.00 in0.0 mm 0.00 in0.0 mm
08:30 PM 51.6°F10.9°C 46.9°F8.3°C 84% 2.2 mph NNE3.5 kmh NNE 3.1 mph5.0 kmh 29.86 in1011.2 mb 0.00 in0.0 mm 0.00 in0.0 mm 0.00 in0.0 mm
08:35 PM 51.6°F10.9°C 46.9°F8.3°C 84% 3.1 mph NW5.0 kmh NW 4.5 mph7.2 kmh 29.86 in1011.2 mb 0.00 in0.0 mm 0.00 in0.0 mm 0.00 in0.0 mm
08:40 PM 51.7°F10.9°C 47.2°F8.4°C 85% 2.0 mph SW3.2 kmh SW 3.8 mph6.1 kmh 29.86 in1011.2 mb 0.00 in0.0 mm 0.00 in0.0 mm 0.00 in0.0 mm
08:45 PM 51.9°F11.1°C 47.5°F8.6°C 85% 3.3 mph N5.3 kmh N 6.0 mph9.7 kmh 29.86 in1011.2 mb 0.00 in0.0 mm 0.00 in0.0 mm 0.00 in0.0 mm
08:50 PM 52.0°F11.1°C 47.6°F8.7°C 85% 1.8 mph NE2.9 kmh NE 4.5 mph7.2 kmh 29.86 in1011.2 mb 0.00 in0.0 mm 0.00 in0.0 mm 0.00 in0.0 mm
08:55 PM 52.0°F11.1°C 47.6°F8.7°C 85% 0.9 mph SE1.4 kmh SE 2.2 mph3.5 kmh 29.86 in1011.2 mb 0.00 in0.0 mm 0.00 in0.0 mm 0.00 in0.0 mm
09:00 PM 52.0°F11.1°C 47.6°F8.7°C 85% 0.7 mph NE1.1 kmh NE 2.2 mph3.5 kmh 29.86 in1011.2 mb 0.00 in0.0 mm 0.00 in0.0 mm 0.00 in0.0 mm
09:05 PM 52.0°F11.1°C 47.6°F8.7°C 85% 0.9 mph NE1.4 kmh NE 1.6 mph2.6 kmh 29.86 in1011.2 mb 0.00 in0.0 mm 0.00 in0.0 mm 0.00 in0.0 mm
09:10 PM 51.8°F11.0°C 47.4°F8.6°C 85% Calm Calm -- 29.86 in1011.2 mb 0.00 in0.0 mm 0.00 in0.0 mm 0.00 in0.0 mm
09:15 PM 51.8°F11.0°C 47.4°F8.6°C 85% 0.6 mph E1.0 kmh E 1.6 mph2.6 kmh 29.86 in1011.2 mb 0.00 in0.0 mm 0.00 in0.0 mm 0.00 in0.0 mm
09:20 PM 51.8°F11.0°C 47.3°F8.5°C 85% 0.8 mph ENE1.3 kmh ENE 3.8 mph6.1 kmh 29.86 in1011.2 mb 0.00 in0.0 mm 0.00 in0.0 mm 0.00 in0.0 mm
09:25 PM 51.6°F10.9°C 46.9°F8.3°C 84% 1.4 mph NNW2.3 kmh NNW 2.2 mph3.5 kmh 29.86 in1011.2 mb 0.00 in0.0 mm 0.00 in0.0 mm 0.00 in0.0 mm
09:30 PM 51.6°F10.9°C 46.9°F8.3°C 84% 1.2 mph N1.9 kmh N 2.2 mph3.5 kmh 29.86 in1011.2 mb 0.00 in0.0 mm 0.00 in0.0 mm 0.00 in0.0 mm
09:35 PM 51.5°F10.8°C 46.8°F8.2°C 84% 1.2 mph E1.9 kmh E 3.1 mph5.0 kmh 29.86 in1011.2 mb 0.00 in0.0 mm 0.00 in0.0 mm 0.00 in0.0 mm
09:40 PM 51.4°F10.8°C 46.7°F8.2°C 84% 0.7 mph NNE1.1 kmh NNE 3.1 mph5.0 kmh 29.85 in1010.8 mb 0.00 in0.0 mm 0.00 in0.0 mm 0.00 in0.0 mm
09:45 PM 51.3°F10.7°C 46.6°F8.1°C 84% 0.8 mph 1.3 kmh 2.2 mph3.5 kmh 29.85 in1010.8 mb 0.00 in0.0 mm 0.00 in0.0 mm 0.00 in0.0 mm
09:50 PM 51.3°F10.7°C 46.6°F8.1°C 84% 0.8 mph SW1.3 kmh SW 2.2 mph3.5 kmh 29.85 in1010.8 mb 0.00 in0.0 mm 0.00 in0.0 mm 0.00 in0.0 mm
09:55 PM 51.2°F10.7°C 46.5°F8.1°C 84% Calm Calm 0.7 mph1.1 kmh 29.85 in1010.8 mb 0.00 in0.0 mm 0.00 in0.0 mm 0.00 in0.0 mm
10:00 PM 51.1°F10.6°C 46.4°F8.0°C 84% 2.0 mph ENE3.2 kmh ENE 3.8 mph6.1 kmh 29.85 in1010.8 mb 0.00 in0.0 mm 0.00 in0.0 mm 0.00 in0.0 mm
10:05 PM 51.1°F10.6°C 46.4°F8.0°C 84% 0.7 mph NE1.1 kmh NE 1.6 mph2.6 kmh 29.85 in1010.8 mb 0.00 in0.0 mm 0.00 in0.0 mm 0.00 in0.0 mm
10:10 PM 51.0°F10.6°C 46.3°F7.9°C 84% 0.2 mph NE0.3 kmh NE 1.6 mph2.6 kmh 29.85 in1010.8 mb 0.00 in0.0 mm 0.00 in0.0 mm 0.00 in0.0 mm
10:15 PM 50.9°F10.5°C 46.2°F7.9°C 84% 1.5 mph NNE2.4 kmh NNE 3.8 mph6.1 kmh 29.85 in1010.8 mb 0.00 in0.0 mm 0.00 in0.0 mm 0.00 in0.0 mm
10:20 PM 50.9°F10.5°C 46.2°F7.9°C 84% 3.5 mph N5.6 kmh N 4.5 mph7.2 kmh 29.85 in1010.8 mb 0.00 in0.0 mm 0.00 in0.0 mm 0.00 in0.0 mm
10:25 PM 50.9°F10.5°C 46.3°F7.9°C 84% 3.4 mph 5.5 kmh 5.4 mph8.7 kmh 29.85 in1010.8 mb 0.00 in0.0 mm 0.00 in0.0 mm 0.00 in0.0 mm
10:30 PM 50.9°F10.5°C 46.6°F8.1°C 85% 4.1 mph NNW6.6 kmh NNW 5.4 mph8.7 kmh 29.85 in1010.8 mb 0.00 in0.0 mm 0.00 in0.0 mm 0.00 in0.0 mm
10:35 PM 50.9°F10.5°C 46.6°F8.1°C 85% 1.5 mph SW2.4 kmh SW 3.8 mph6.1 kmh 29.85 in1010.8 mb 0.00 in0.0 mm 0.00 in0.0 mm 0.00 in0.0 mm
10:40 PM 50.9°F10.5°C 46.6°F8.1°C 85% 0.6 mph S1.0 kmh S 2.2 mph3.5 kmh 29.86 in1011.2 mb 0.00 in0.0 mm 0.00 in0.0 mm 0.00 in0.0 mm
10:45 PM 50.9°F10.5°C 46.6°F8.1°C 85% 1.2 mph ENE1.9 kmh ENE 3.8 mph6.1 kmh 29.85 in1010.8 mb 0.00 in0.0 mm 0.00 in0.0 mm 0.00 in0.0 mm
10:50 PM 50.9°F10.5°C 46.6°F8.1°C 85% 1.5 mph ENE2.4 kmh ENE 2.2 mph3.5 kmh 29.86 in1011.2 mb 0.00 in0.0 mm 0.00 in0.0 mm 0.00 in0.0 mm
10:55 PM 50.9°F10.5°C 46.6°F8.1°C 85% Calm Calm 0.7 mph1.1 kmh 29.85 in1010.8 mb 0.00 in0.0 mm 0.00 in0.0 mm 0.00 in0.0 mm
11:00 PM 50.9°F10.5°C 46.6°F8.1°C 85% Calm Calm -- 29.86 in1011.2 mb 0.00 in0.0 mm 0.00 in0.0 mm 0.00 in0.0 mm
11:05 PM 50.9°F10.5°C 46.6°F8.1°C 85% 1.3 mph WSW2.1 kmh WSW 3.1 mph5.0 kmh 29.86 in1011.2 mb 0.00 in0.0 mm 0.00 in0.0 mm 0.00 in0.0 mm
11:10 PM 50.9°F10.5°C 46.6°F8.1°C 85% 0.6 mph SW1.0 kmh SW 1.6 mph2.6 kmh 29.86 in1011.2 mb 0.00 in0.0 mm 0.00 in0.0 mm 0.00 in0.0 mm
11:15 PM 50.9°F10.5°C 46.6°F8.1°C 85% Calm Calm 0.7 mph1.1 kmh 29.86 in1011.2 mb 0.00 in0.0 mm 0.00 in0.0 mm 0.00 in0.0 mm
11:20 PM 50.8°F10.4°C 46.4°F8.0°C 85% Calm Calm 0.7 mph1.1 kmh 29.86 in1011.2 mb 0.00 in0.0 mm 0.00 in0.0 mm 0.00 in0.0 mm
11:25 PM 50.7°F10.4°C 46.4°F8.0°C 85% 0.3 mph SW0.5 kmh SW 1.6 mph2.6 kmh 29.86 in1011.2 mb 0.01 in0.3 mm 0.12 in3.0 mm 0.01 in0.3 mm
11:30 PM 50.7°F10.4°C 46.4°F8.0°C 85% 0.3 mph SSW0.5 kmh SSW 1.6 mph2.6 kmh 29.86 in1011.2 mb 0.01 in0.3 mm 0.00 in0.0 mm 0.01 in0.3 mm
11:35 PM 50.7°F10.4°C 46.4°F8.0°C 85% Calm Calm 0.7 mph1.1 kmh 29.86 in1011.2 mb 0.01 in0.3 mm 0.00 in0.0 mm 0.01 in0.3 mm
11:40 PM 50.7°F10.4°C 46.4°F8.0°C 85% Calm Calm -- 29.86 in1011.2 mb 0.02 in0.5 mm 0.12 in3.0 mm 0.02 in0.5 mm
11:45 PM 50.7°F10.4°C 46.4°F8.0°C 85% 0.6 mph SSE1.0 kmh SSE 3.8 mph6.1 kmh 29.86 in1011.2 mb 0.04 in1.0 mm 0.24 in6.1 mm 0.04 in1.0 mm
11:50 PM 50.7°F10.4°C 46.4°F8.0°C 85% 0.9 mph S1.4 kmh S 3.8 mph6.1 kmh 29.86 in1011.2 mb 0.05 in1.3 mm 0.12 in3.0 mm 0.05 in1.3 mm
11:55 PM 50.7°F10.4°C 46.6°F8.1°C 86% 1.6 mph 2.6 kmh 3.8 mph6.1 kmh 29.85 in1010.8 mb 0.06 in1.5 mm 0.12 in3.0 mm 0.06 in1.5 mm